Flugplatz Siegerland

Bericht für EDGS

vom 07.08. um 08:20 UTC

Wind 5 kt aus 120°

Sichtweite 10 km oder mehr

gute Sicht, keine Wolken < 5000 ft, keine CB, keine Wettererscheinungen (CAVOK)

Temperatur 26.0°C

Taupunkt 9.0°C

Luftfeuchtigkeit 34%

Luftdruck 1023 hPa

EDGS 070820Z 12005KT 050V160 CAVOK 26/09 Q1023

Prognose für EDGS

vom 07.08. um 08:00 UTC

Zwischen 09:00 UTC und 18:00 UTC

variable Windrichtung mit 3 kt

Sichtweite 10 km oder mehr

keine signifikanten Wettererscheinungen

keine Wolken


Zwischen 09:00 und 11:00 UTC übergehend zu

Wind 5 kt aus 90°

Sichtweite 10 km oder mehr

keine signifikanten Wettererscheinungen

keine Wolken

TAF EDGS 070800Z 0709/0718 VRB03KT CAVOK BECMG 0709/0711 09005KT
Impressum